createdAt,value
2019-04-27T00:02:23.042Z,12.93
2019-04-27T00:04:58.768Z,12.10
2019-04-27T00:07:34.881Z,12.70
2019-04-27T00:10:11.450Z,12.82
2019-04-27T00:12:39.762Z,11.97
2019-04-27T00:15:09.705Z,11.80
2019-04-27T00:17:49.292Z,11.90
2019-04-27T00:20:22.322Z,12.07
2019-04-27T00:23:04.445Z,11.12
2019-04-27T00:25:32.880Z,12.43
2019-04-27T00:28:01.208Z,12.07
2019-04-27T00:30:29.861Z,10.70
2019-04-27T00:32:58.181Z,11.63
2019-04-27T00:35:28.147Z,11.80
2019-04-27T00:38:04.639Z,12.43
2019-04-27T00:40:34.589Z,12.20
2019-04-27T00:43:03.089Z,11.85
2019-04-27T00:45:31.459Z,11.90
2019-04-27T00:48:00.020Z,10.98
2019-04-27T00:50:28.768Z,11.00
2019-04-27T00:52:57.050Z,11.30
2019-04-27T00:55:25.361Z,11.10
2019-04-27T00:58:01.077Z,10.13
2019-04-27T01:00:33.963Z,10.75
2019-04-27T01:03:06.645Z,11.00
2019-04-27T01:05:34.962Z,10.80
2019-04-27T01:08:03.902Z,10.13
2019-04-27T01:10:33.470Z,10.38
2019-04-27T01:13:03.333Z,10.70
2019-04-27T01:15:33.826Z,10.43
2019-04-27T01:18:12.284Z,9.90
2019-04-27T01:20:32.595Z,9.65
2019-04-27T01:23:00.892Z,9.60
2019-04-27T01:25:30.835Z,9.45
2019-04-27T01:28:00.794Z,9.03
2019-04-27T01:30:30.985Z,8.73
2019-04-27T01:32:59.598Z,8.67
2019-04-27T01:35:28.842Z,7.97
2019-04-27T01:37:58.927Z,8.65
2019-04-27T01:40:27.316Z,7.75
2019-04-27T01:42:55.654Z,8.00
2019-04-27T01:45:24.235Z,7.92
2019-04-27T01:47:52.812Z,7.40
2019-04-27T01:50:21.166Z,7.00
2019-04-27T01:52:49.460Z,6.70
2019-04-27T01:55:18.874Z,6.92
2019-04-27T01:57:48.756Z,7.05
2019-04-27T02:00:30.859Z,6.85
2019-04-27T02:03:00.789Z,6.60
2019-04-27T02:05:42.940Z,6.50
2019-04-27T02:08:11.234Z,6.25
2019-04-27T02:10:39.724Z,6.62
2019-04-27T02:13:08.966Z,6.45
2019-04-27T02:15:37.366Z,6.30
2019-04-27T02:18:06.275Z,6.12
2019-04-27T02:20:34.583Z,6.35
2019-04-27T02:23:02.883Z,6.00
2019-04-27T02:25:31.429Z,5.50
2019-04-27T02:28:04.013Z,5.50
2019-04-27T02:30:36.667Z,6.00
2019-04-27T02:33:12.960Z,6.20
2019-04-27T02:35:42.155Z,5.80
2019-04-27T02:38:10.532Z,5.90
2019-04-27T02:40:50.243Z,6.03
2019-04-27T02:43:21.012Z,5.50
2019-04-27T02:45:50.350Z,5.95
2019-04-27T02:48:19.848Z,5.92
2019-04-27T02:50:50.348Z,5.70
2019-04-27T02:53:20.308Z,5.75
2019-04-27T02:55:49.981Z,5.50
2019-04-27T02:58:21.474Z,5.50
2019-04-27T03:00:50.166Z,4.90
2019-04-27T03:03:20.362Z,5.30
2019-04-27T03:05:50.283Z,5.03
2019-04-27T03:08:19.986Z,4.75
2019-04-27T03:10:50.326Z,4.55
2019-04-27T03:13:20.290Z,4.42
2019-04-27T03:15:50.140Z,4.87
2019-04-27T03:18:20.069Z,4.90
2019-04-27T03:20:52.464Z,4.67
2019-04-27T03:23:20.785Z,4.77
2019-04-27T03:26:06.015Z,4.45
2019-04-27T03:28:34.333Z,4.40
2019-04-27T03:31:03.136Z,4.80
2019-04-27T03:33:32.727Z,4.80
2019-04-27T03:36:02.996Z,4.62
2019-04-27T03:38:31.759Z,4.80
2019-04-27T03:41:00.752Z,4.20
2019-04-27T03:43:30.256Z,4.45
2019-04-27T03:46:00.451Z,4.50
2019-04-27T03:48:29.659Z,4.47
2019-04-27T03:51:02.795Z,3.90
2019-04-27T03:53:41.524Z,3.60
2019-04-27T03:56:20.174Z,3.50
2019-04-27T03:58:53.095Z,3.30
2019-04-27T04:01:21.788Z,3.17
2019-04-27T04:03:50.445Z,3.40
2019-04-27T04:06:19.420Z,2.87
2019-04-27T04:08:50.612Z,2.97
2019-04-27T04:11:20.260Z,3.20
2019-04-27T04:13:53.119Z,3.12
2019-04-27T04:16:23.066Z,3.30
2019-04-27T04:19:02.030Z,3.50
2019-04-27T04:21:30.504Z,3.58
2019-04-27T04:24:00.858Z,3.73
2019-04-27T04:26:31.947Z,4.10
2019-04-27T04:28:59.848Z,4.17
2019-04-27T04:31:32.587Z,4.60
2019-04-27T04:33:59.800Z,4.67
2019-04-27T04:36:30.170Z,4.00
2019-04-27T04:39:00.485Z,4.20
2019-04-27T04:41:43.693Z,3.80
2019-04-27T04:44:30.425Z,3.90
2019-04-27T04:47:03.031Z,4.00
2019-04-27T04:49:31.345Z,3.20
2019-04-27T04:51:59.744Z,2.90
2019-04-27T04:54:30.042Z,3.10
2019-04-27T04:56:59.478Z,3.70
2019-04-27T04:59:29.108Z,4.50
2019-04-27T05:02:00.236Z,3.60
2019-04-27T05:04:29.165Z,3.22
2019-04-27T05:06:59.177Z,3.15
2019-04-27T05:09:29.410Z,2.92
2019-04-27T05:11:58.763Z,3.07
2019-04-27T05:14:28.922Z,2.77
2019-04-27T05:16:59.029Z,2.50
2019-04-27T05:19:28.805Z,2.30
2019-04-27T05:21:59.165Z,2.15
2019-04-27T05:24:29.107Z,1.90
2019-04-27T05:26:58.889Z,1.82
2019-04-27T05:29:29.130Z,1.30
2019-04-27T05:31:59.224Z,1.40
2019-04-27T05:34:29.270Z,1.50
2019-04-27T05:36:59.327Z,1.60
2019-04-27T05:39:29.785Z,1.90
2019-04-27T05:41:59.710Z,1.55
2019-04-27T05:44:49.345Z,1.40
2019-04-27T05:47:19.281Z,1.30
2019-04-27T05:49:48.535Z,1.50
2019-04-27T05:52:29.777Z,1.50
2019-04-27T05:54:59.088Z,1.55
2019-04-27T05:57:30.836Z,1.40
2019-04-27T05:59:58.889Z,1.60
2019-04-27T06:02:30.231Z,1.80
2019-04-27T06:05:00.011Z,1.90
2019-04-27T06:07:29.709Z,2.10
2019-04-27T06:09:59.786Z,2.20
2019-04-27T06:12:29.639Z,2.30
2019-04-27T06:14:59.865Z,2.10
2019-04-27T06:17:29.823Z,2.30
2019-04-27T06:19:59.651Z,3.80
2019-04-27T06:22:29.175Z,2.10
2019-04-27T06:24:59.697Z,2.50
2019-04-27T06:27:30.551Z,2.50
2019-04-27T06:29:59.355Z,2.40
2019-04-27T06:32:29.635Z,2.70
2019-04-27T06:34:59.043Z,3.10
2019-04-27T06:37:29.410Z,2.50
2019-04-27T06:39:59.641Z,3.00
2019-04-27T06:42:29.695Z,2.90
2019-04-27T06:44:59.970Z,2.70
2019-04-27T06:47:29.463Z,2.50
2019-04-27T06:49:58.763Z,2.87
2019-04-27T06:52:28.936Z,2.50
2019-04-27T06:55:00.540Z,2.43
2019-04-27T06:57:29.148Z,2.30
2019-04-27T06:59:59.157Z,2.40
2019-04-27T07:02:29.106Z,2.90
2019-04-27T07:04:59.146Z,2.30
2019-04-27T07:07:29.289Z,2.50
2019-04-27T07:09:59.023Z,2.50
2019-04-27T07:12:28.765Z,2.10
2019-04-27T07:14:59.307Z,2.67
2019-04-27T07:17:28.982Z,2.62
2019-04-27T07:19:59.233Z,3.20
2019-04-27T07:22:27.405Z,3.00
2019-04-27T07:24:56.039Z,2.93
2019-04-27T07:27:24.327Z,2.98
2019-04-27T07:29:53.697Z,3.00
2019-04-27T07:32:22.400Z,2.95
2019-04-27T07:34:50.695Z,3.00
2019-04-27T07:37:19.640Z,3.05
2019-04-27T07:39:49.222Z,2.90
2019-04-27T07:42:17.582Z,3.20
2019-04-27T07:44:47.777Z,3.40
2019-04-27T07:47:19.483Z,3.30
2019-04-27T07:49:49.700Z,3.90
2019-04-27T07:52:18.962Z,3.80
2019-04-27T07:54:49.222Z,3.95
2019-04-27T07:57:19.442Z,3.72
2019-04-27T07:59:49.875Z,3.90
2019-04-27T08:02:19.007Z,4.45
2019-04-27T08:04:48.505Z,5.33
2019-04-27T08:07:19.650Z,4.35
2019-04-27T08:09:49.670Z,4.33
2019-04-27T08:12:18.572Z,4.17
2019-04-27T08:14:49.075Z,4.70
2019-04-27T08:17:19.183Z,4.10
2019-04-27T08:19:49.375Z,3.90
2019-04-27T08:22:19.309Z,4.12
2019-04-27T08:24:49.605Z,4.22
2019-04-27T08:27:31.619Z,3.70
2019-04-27T08:30:09.341Z,3.80
2019-04-27T08:32:41.349Z,4.15
2019-04-27T08:35:09.591Z,3.70
2019-04-27T08:37:38.632Z,4.10
2019-04-27T08:40:09.310Z,3.25
2019-04-27T08:42:39.140Z,3.67
2019-04-27T08:45:09.422Z,3.80
2019-04-27T08:47:39.466Z,3.40
2019-04-27T08:50:09.099Z,4.30
2019-04-27T08:52:41.493Z,3.90
2019-04-27T08:55:09.529Z,3.90
2019-04-27T08:57:38.804Z,3.70
2019-04-27T09:00:10.767Z,3.60
2019-04-27T09:02:44.805Z,3.65
2019-04-27T09:05:09.726Z,4.00
2019-04-27T09:07:39.877Z,5.33
2019-04-27T09:10:10.349Z,4.20
2019-04-27T09:12:50.091Z,5.40
2019-04-27T09:15:20.414Z,4.70
2019-04-27T09:17:50.325Z,5.12
2019-04-27T09:20:20.589Z,7.17
2019-04-27T09:22:49.354Z,4.47
2019-04-27T09:25:19.295Z,4.70
2019-04-27T09:27:49.300Z,4.28
2019-04-27T09:30:19.082Z,4.67
2019-04-27T09:32:47.484Z,4.92
2019-04-27T09:35:16.210Z,4.30
2019-04-27T09:37:45.888Z,4.10
2019-04-27T09:40:14.375Z,3.90
2019-04-27T09:42:42.686Z,3.80
2019-04-27T09:45:11.029Z,3.65
2019-04-27T09:47:39.603Z,3.80
2019-04-27T09:50:08.607Z,4.30
2019-04-27T09:52:37.178Z,4.20
2019-04-27T09:55:06.693Z,3.83
2019-04-27T09:57:36.514Z,4.00
2019-04-27T10:00:09.540Z,3.95
2019-04-27T10:02:37.836Z,4.10
2019-04-27T10:05:06.880Z,3.80
2019-04-27T10:07:35.877Z,5.53
2019-04-27T10:10:07.349Z,6.15
2019-04-27T10:12:36.831Z,4.55
2019-04-27T10:15:06.487Z,4.58
2019-04-27T10:17:34.860Z,4.47
2019-04-27T10:20:03.629Z,4.20
2019-04-27T10:22:41.125Z,4.50
2019-04-27T10:25:02.031Z,4.08
2019-04-27T10:27:30.582Z,3.58
2019-04-27T10:29:58.888Z,4.10
2019-04-27T10:32:27.639Z,3.80
2019-04-27T10:34:56.020Z,3.53
2019-04-27T10:37:24.601Z,3.62
2019-04-27T10:39:52.898Z,3.80
2019-04-27T10:42:21.195Z,3.50
2019-04-27T10:44:49.491Z,3.72
2019-04-27T10:47:18.120Z,3.60
2019-04-27T10:49:48.389Z,3.62
2019-04-27T10:52:16.719Z,4.08
2019-04-27T10:54:45.987Z,4.28
2019-04-27T10:57:15.839Z,4.50
2019-04-27T10:59:46.041Z,5.25
2019-04-27T11:02:14.409Z,4.30
2019-04-27T11:04:47.314Z,4.90
2019-04-27T11:07:17.247Z,3.17
2019-04-27T11:09:45.534Z,3.60
2019-04-27T11:12:15.716Z,4.12
2019-04-27T11:14:44.416Z,4.83
2019-04-27T11:17:12.724Z,4.53
2019-04-27T11:19:41.024Z,4.80
2019-04-27T11:22:09.391Z,4.60
2019-04-27T11:24:37.954Z,4.50
2019-04-27T11:27:06.228Z,3.50
2019-04-27T11:29:36.041Z,4.87
2019-04-27T11:32:05.775Z,4.00
2019-04-27T11:34:51.877Z,3.90
2019-04-27T11:37:22.136Z,4.10
2019-04-27T11:39:50.429Z,4.92
2019-04-27T11:42:18.834Z,3.00
2019-04-27T11:44:47.170Z,3.00
2019-04-27T11:47:16.228Z,3.03
2019-04-27T11:49:45.687Z,3.50
2019-04-27T11:52:15.667Z,3.30
2019-04-27T11:54:45.646Z,3.83
2019-04-27T11:57:14.081Z,4.20
2019-04-27T11:59:42.386Z,3.70
2019-04-27T12:02:10.802Z,3.83
2019-04-27T12:04:39.083Z,4.85
2019-04-27T12:07:07.735Z,5.80
2019-04-27T12:09:36.027Z,5.50
2019-04-27T12:12:15.097Z,5.15
2019-04-27T12:14:34.406Z,5.67
2019-04-27T12:17:02.789Z,5.50
2019-04-27T12:19:31.430Z,5.03
2019-04-27T12:21:59.711Z,5.40
2019-04-27T12:24:28.112Z,5.95
2019-04-27T12:27:06.979Z,6.30
2019-04-27T12:29:53.333Z,4.80
2019-04-27T12:32:22.189Z,4.90
2019-04-27T12:34:51.203Z,4.22
2019-04-27T12:37:19.794Z,4.78
2019-04-27T12:39:48.357Z,3.70
2019-04-27T12:42:16.949Z,3.60
2019-04-27T12:44:45.476Z,3.00
2019-04-27T12:47:13.880Z,3.10
2019-04-27T12:49:42.436Z,3.00
2019-04-27T12:52:10.735Z,3.50
2019-04-27T12:54:43.245Z,3.10
2019-04-27T12:57:20.882Z,3.27
2019-04-27T13:00:03.388Z,3.70
2019-04-27T13:03:28.926Z,3.02
2019-04-27T13:05:57.291Z,2.70
2019-04-27T13:08:26.138Z,2.77
2019-04-27T13:10:55.698Z,3.42
2019-04-27T13:13:26.673Z,2.75
2019-04-27T13:15:56.329Z,2.50
2019-04-27T13:18:25.820Z,2.35
2019-04-27T13:20:54.288Z,2.00
2019-04-27T13:23:22.576Z,4.15
2019-04-27T13:25:50.881Z,3.05
2019-04-27T13:28:19.627Z,2.00
2019-04-27T13:30:47.924Z,2.00
2019-04-27T13:33:17.513Z,2.37
2019-04-27T13:35:45.896Z,1.90
2019-04-27T13:38:17.841Z,2.10
2019-04-27T13:40:45.866Z,1.80
2019-04-27T13:43:22.488Z,1.60
2019-04-27T13:45:52.450Z,1.90
2019-04-27T13:48:26.108Z,2.20
2019-04-27T13:50:57.279Z,2.10
2019-04-27T13:53:26.238Z,2.10
2019-04-27T13:55:56.632Z,2.27
2019-04-27T13:58:24.668Z,2.30
2019-04-27T14:00:52.967Z,2.40
2019-04-27T14:03:21.283Z,2.35
2019-04-27T14:05:49.577Z,2.30
2019-04-27T14:08:17.894Z,2.40
2019-04-27T14:10:46.645Z,2.20
2019-04-27T14:13:17.505Z,3.10
2019-04-27T14:15:44.989Z,2.47
2019-04-27T14:18:13.300Z,2.05
2019-04-27T14:20:41.573Z,2.25
2019-04-27T14:23:14.189Z,2.20
2019-04-27T14:25:42.472Z,2.47
2019-04-27T14:28:10.840Z,2.17
2019-04-27T14:30:40.031Z,2.00
2019-04-27T14:33:08.563Z,1.80
2019-04-27T14:35:36.887Z,2.10
2019-04-27T14:38:05.310Z,1.87
2019-04-27T14:40:33.893Z,2.10
2019-04-27T14:43:02.178Z,2.15
2019-04-27T14:45:30.493Z,1.75
2019-04-27T14:47:58.790Z,2.00
2019-04-27T14:50:27.086Z,2.08
2019-04-27T14:52:55.619Z,2.00
2019-04-27T14:55:23.918Z,4.00
2019-04-27T14:57:52.230Z,4.20
2019-04-27T15:00:21.723Z,2.83
2019-04-27T15:02:50.372Z,2.80
2019-04-27T15:05:18.729Z,2.17
2019-04-27T15:07:47.026Z,2.37
2019-04-27T15:10:16.199Z,2.55
2019-04-27T15:12:44.715Z,2.87
2019-04-27T15:15:13.387Z,3.45
2019-04-27T15:17:41.715Z,2.80
2019-04-27T15:20:12.165Z,2.50
2019-04-27T15:22:40.531Z,2.20
2019-04-27T15:25:13.665Z,2.72
2019-04-27T15:27:42.346Z,2.10
2019-04-27T15:30:14.368Z,2.30
2019-04-27T15:32:52.996Z,2.70
2019-04-27T15:35:35.435Z,2.45
2019-04-27T15:38:15.954Z,2.90
2019-04-27T15:41:01.810Z,2.90
2019-04-27T15:43:31.761Z,2.10
2019-04-27T15:46:00.190Z,1.80
2019-04-27T15:48:30.667Z,1.47
2019-04-27T15:51:02.856Z,1.60
2019-04-27T15:53:28.911Z,2.08
2019-04-27T15:55:59.996Z,1.90
2019-04-27T15:58:28.386Z,2.10
2019-04-27T16:01:02.388Z,1.50
2019-04-27T16:03:31.265Z,1.40
2019-04-27T16:05:58.857Z,1.80
2019-04-27T16:08:28.842Z,1.50
2019-04-27T16:10:58.822Z,1.42
2019-04-27T16:13:32.954Z,1.53
2019-04-27T16:15:58.410Z,1.60
2019-04-27T16:18:31.071Z,1.73
2019-04-27T16:20:58.627Z,2.10
2019-04-27T16:23:28.262Z,1.92
2019-04-27T16:25:58.207Z,1.70
2019-04-27T16:28:26.824Z,1.75
2019-04-27T16:30:55.123Z,2.20
2019-04-27T16:33:23.667Z,2.33
2019-04-27T16:35:53.112Z,2.58
2019-04-27T16:38:26.703Z,2.80
2019-04-27T16:40:54.707Z,2.80
2019-04-27T16:43:30.241Z,3.30
2019-04-27T16:45:57.856Z,2.50
2019-04-27T16:48:28.092Z,3.45
2019-04-27T16:50:55.176Z,3.60
2019-04-27T16:53:23.886Z,2.30
2019-04-27T16:56:01.553Z,2.70
2019-04-27T16:58:24.543Z,2.30
2019-04-27T17:00:52.869Z,2.30
2019-04-27T17:03:21.220Z,2.50
2019-04-27T17:05:49.537Z,2.80
2019-04-27T17:08:22.153Z,2.50
2019-04-27T17:10:47.926Z,2.70
2019-04-27T17:13:16.405Z,5.30
2019-04-27T17:16:04.361Z,4.07
2019-04-27T17:18:34.622Z,4.47
2019-04-27T17:21:16.059Z,3.27
2019-04-27T17:23:33.613Z,3.57
2019-04-27T17:26:06.221Z,3.80
2019-04-27T17:28:39.724Z,4.10
2019-04-27T17:31:08.763Z,3.47
2019-04-27T17:36:19.363Z,3.85
2019-04-27T17:38:50.832Z,3.90
2019-04-27T17:41:18.377Z,4.10
2019-04-27T17:43:48.155Z,3.47
2019-04-27T17:46:16.769Z,3.60
2019-04-27T17:48:45.330Z,3.67
2019-04-27T17:51:14.027Z,3.50
2019-04-27T17:53:42.608Z,4.03
2019-04-27T17:56:10.905Z,3.67
2019-04-27T17:58:40.817Z,3.30
2019-04-27T18:01:13.980Z,3.30
2019-04-27T18:03:40.815Z,3.40
2019-04-27T18:06:09.437Z,3.02
2019-04-27T18:08:40.262Z,3.00
2019-04-27T18:11:08.752Z,3.05
2019-04-27T18:13:38.835Z,3.05
2019-04-27T18:16:09.004Z,3.45
2019-04-27T18:19:00.058Z,3.10
2019-04-27T18:21:28.879Z,3.30
2019-04-27T18:24:01.460Z,3.55
2019-04-27T18:26:30.488Z,3.90
2019-04-27T18:31:34.466Z,4.03
2019-04-27T18:34:02.734Z,4.47
2019-04-27T18:36:31.046Z,5.30
2019-04-27T18:38:59.643Z,6.03
2019-04-27T18:41:28.782Z,4.85
2019-04-27T18:43:59.932Z,4.95
2019-04-27T18:46:28.311Z,7.08
2019-04-27T18:48:58.590Z,5.90
2019-04-27T18:51:28.839Z,4.85
2019-04-27T18:53:59.749Z,4.50
2019-04-27T18:56:29.053Z,4.78
2019-04-27T18:58:58.026Z,4.83
2019-04-27T19:01:28.919Z,4.37
2019-04-27T19:03:58.586Z,4.95
2019-04-27T19:06:28.898Z,5.60
2019-04-27T19:08:59.033Z,5.50
2019-04-27T19:11:28.962Z,5.30
2019-04-27T19:13:59.068Z,4.30
2019-04-27T19:16:29.117Z,3.90
2019-04-27T19:18:58.384Z,3.90
2019-04-27T19:21:28.797Z,4.33
2019-04-27T19:23:58.472Z,4.12
2019-04-27T19:26:38.241Z,4.05
2019-04-27T19:29:11.108Z,4.60
2019-04-27T19:31:50.223Z,5.45
2019-04-27T19:34:18.648Z,5.62
2019-04-27T19:36:48.834Z,5.27
2019-04-27T19:39:18.073Z,4.90
2019-04-27T19:41:57.022Z,4.83
2019-04-27T19:44:18.547Z,4.92
2019-04-27T19:46:49.028Z,4.60
2019-04-27T19:49:16.811Z,5.40
2019-04-27T19:51:45.101Z,4.42
2019-04-27T19:54:13.384Z,4.67
2019-04-27T19:56:41.710Z,5.10
2019-04-27T19:59:14.380Z,5.50
2019-04-27T20:01:44.375Z,5.30
2019-04-27T20:04:14.303Z,5.30
2019-04-27T20:06:42.866Z,6.13
2019-04-27T20:09:29.122Z,6.30
2019-04-27T20:11:57.546Z,6.87
2019-04-27T20:14:25.861Z,6.60
2019-04-27T20:16:54.173Z,6.65
2019-04-27T20:19:22.464Z,7.10
2019-04-27T20:21:50.964Z,7.33
2019-04-27T20:24:19.324Z,6.60
2019-04-27T20:26:47.690Z,6.90
2019-04-27T20:29:16.002Z,7.03
2019-04-27T20:31:44.335Z,6.60
2019-04-27T20:34:12.668Z,7.08
2019-04-27T20:36:41.493Z,7.23
2019-04-27T20:39:11.771Z,8.80
2019-04-27T20:41:41.074Z,10.00
2019-04-27T20:44:12.294Z,11.68
2019-04-27T20:46:41.338Z,11.48
2019-04-27T20:49:13.942Z,12.00
2019-04-27T20:51:50.953Z,11.20
2019-04-27T20:54:21.422Z,10.98
2019-04-27T20:56:51.606Z,11.73
2019-04-27T20:59:21.950Z,9.98
2019-04-27T21:01:49.980Z,8.78
2019-04-27T21:04:20.977Z,9.07
2019-04-27T21:06:51.110Z,8.60
2019-04-27T21:09:21.254Z,8.35
2019-04-27T21:11:49.727Z,8.38
2019-04-27T21:14:18.089Z,10.60
2019-04-27T21:16:46.900Z,8.67
2019-04-27T21:19:15.519Z,9.03
2019-04-27T21:21:43.827Z,8.40
2019-04-27T21:24:12.209Z,7.83
2019-04-27T21:26:41.921Z,7.53
2019-04-27T21:29:12.051Z,6.80
2019-04-27T21:31:41.822Z,6.62
2019-04-27T21:34:10.624Z,6.42
2019-04-27T21:36:42.252Z,6.30
2019-04-27T21:39:09.051Z,7.53
2019-04-27T21:41:37.345Z,6.35
2019-04-27T21:44:05.722Z,6.37
2019-04-27T21:46:34.914Z,7.10
2019-04-27T21:49:03.553Z,6.93
2019-04-27T21:51:33.614Z,5.92
2019-04-27T21:54:03.562Z,6.37
2019-04-27T21:56:31.855Z,6.03
2019-04-27T21:59:01.015Z,5.80
2019-04-27T22:01:31.837Z,5.33
2019-04-27T22:04:02.667Z,5.92
2019-04-27T22:06:30.959Z,5.97
2019-04-27T22:09:01.316Z,5.78
2019-04-27T22:11:31.775Z,5.97
2019-04-27T22:14:01.478Z,6.65
2019-04-27T22:16:31.475Z,6.00
2019-04-27T22:19:01.797Z,6.23
2019-04-27T22:21:31.580Z,6.00
2019-04-27T22:24:01.624Z,5.87
2019-04-27T22:26:31.461Z,5.70
2019-04-27T22:29:01.481Z,6.00
2019-04-27T22:31:31.353Z,6.40
2019-04-27T22:34:01.744Z,5.83
2019-04-27T22:36:31.310Z,6.03
2019-04-27T22:39:01.630Z,6.12
2019-04-27T22:41:43.885Z,5.95
2019-04-27T22:44:13.819Z,5.47
2019-04-27T22:46:43.755Z,5.55
2019-04-27T22:49:12.129Z,5.53
2019-04-27T22:51:41.210Z,5.25
2019-04-27T22:54:11.594Z,5.60
2019-04-27T22:56:42.259Z,4.80
2019-04-27T22:59:15.202Z,5.10
2019-04-27T23:01:45.107Z,5.10
2019-04-27T23:04:18.033Z,4.55
2019-04-27T23:06:46.316Z,5.30
2019-04-27T23:09:14.767Z,5.10
2019-04-27T23:11:43.122Z,4.80
2019-04-27T23:14:11.425Z,4.78
2019-04-27T23:16:42.126Z,4.45
2019-04-27T23:19:10.930Z,5.40
2019-04-27T23:21:39.307Z,4.60
2019-04-27T23:24:07.624Z,4.83
2019-04-27T23:26:35.907Z,4.90
2019-04-27T23:29:13.005Z,4.50
2019-04-27T23:31:36.339Z,4.25
2019-04-27T23:34:04.675Z,4.75
2019-04-27T23:36:32.986Z,4.28
2019-04-27T23:39:01.336Z,3.67
2019-04-27T23:41:29.718Z,4.33
2019-04-27T23:43:57.989Z,3.90
2019-04-27T23:46:26.303Z,3.75
2019-04-27T23:48:54.574Z,3.98
2019-04-27T23:51:24.518Z,4.12
2019-04-27T23:53:52.798Z,3.97
2019-04-27T23:56:22.551Z,3.70
2019-04-27T23:58:50.881Z,3.50
